Dexter, Ohio
Current Conditions -  °F | °C
As of 4:35 AM on Friday 28 Nov 2014 (Local Time) from KUNI Reporting Station
Overcast Overcast  
Wind Chill: 21°   Ceiling: 5000
Heat Index: 28°   Visibility: 10mi
Dew Point: 21°   Wind: 6mph
Humidity: 76%   Direction: 280°W
Pressure: 30.36"   Gusts: NA
Location:  39.0632°N, 82.2522°W
Report Text: KUNI 280935Z AUTO 28005KT 10SM SCT022 OVC050 M02/M06 A3036 RMK AO2 T10251062
Loading
Personal Weather Stations






























Interactive Weather Map New forecast layout! Learn more

10-Day Weather Forecast

Advertisements
Track Severe Weather on mobile